createdAt,value
2022-12-28T00:00:31.054Z,1628
2022-12-28T00:05:49.380Z,1633
2022-12-28T00:11:12.236Z,1636
2022-12-28T00:16:49.210Z,1638
2022-12-28T00:22:07.679Z,1635
2022-12-28T00:27:26.163Z,1634
2022-12-28T00:32:44.339Z,1632
2022-12-28T00:38:03.129Z,1629
2022-12-28T00:43:21.641Z,1631
2022-12-28T00:48:39.849Z,1618
2022-12-28T00:53:58.317Z,1616
2022-12-28T00:59:16.828Z,1612
2022-12-28T01:04:34.761Z,1612
2022-12-28T01:09:37.324Z,1613
2022-12-28T01:14:56.121Z,1628
2022-12-28T01:20:14.310Z,1664
2022-12-28T01:25:16.901Z,1703
2022-12-28T01:30:34.867Z,1732
2022-12-28T01:35:57.115Z,1755
2022-12-28T01:41:15.298Z,1763
2022-12-28T01:46:33.820Z,1768
2022-12-28T01:51:52.018Z,1773
2022-12-28T01:57:10.234Z,1785
2022-12-28T02:02:30.136Z,1786
2022-12-28T02:07:48.973Z,1808
2022-12-28T02:13:07.754Z,1831
2022-12-28T02:18:26.436Z,1827
2022-12-28T02:23:44.643Z,1837
2022-12-28T02:29:03.123Z,1848
2022-12-28T02:34:21.358Z,1856
2022-12-28T02:39:39.829Z,1851
2022-12-28T02:44:58.289Z,1856
2022-12-28T02:50:16.553Z,1859
2022-12-28T02:55:34.479Z,1882
2022-12-28T03:00:52.414Z,1893
2022-12-28T03:06:14.701Z,1895
2022-12-28T03:11:25.090Z,1905
2022-12-28T03:16:43.307Z,1900
2022-12-28T03:22:02.080Z,1907
2022-12-28T03:27:04.637Z,1905
2022-12-28T03:32:23.767Z,1892
2022-12-28T03:37:42.284Z,1889
2022-12-28T03:43:00.489Z,1888
2022-12-28T03:48:19.248Z,1882
2022-12-28T03:53:37.211Z,1873
2022-12-28T03:58:55.719Z,1864
2022-12-28T04:04:13.981Z,1859
2022-12-28T04:09:35.718Z,1851
2022-12-28T04:14:54.483Z,1848
2022-12-28T04:20:12.971Z,1839
2022-12-28T04:25:31.216Z,1841
2022-12-28T04:30:49.990Z,1840
2022-12-28T04:36:08.772Z,1849
2022-12-28T04:41:27.287Z,1843
2022-12-28T04:46:45.799Z,1836
2022-12-28T04:52:04.115Z,1846
2022-12-28T04:57:22.637Z,1827
2022-12-28T05:02:44.041Z,1821
2022-12-28T05:08:04.792Z,1824
2022-12-28T05:13:23.059Z,1816
2022-12-28T05:18:41.287Z,1816
2022-12-28T05:23:59.771Z,1823
2022-12-28T05:29:18.565Z,1825
2022-12-28T05:34:37.037Z,1812
2022-12-28T05:39:55.574Z,1808
2022-12-28T05:45:14.080Z,1806
2022-12-28T05:50:31.997Z,1810
2022-12-28T05:55:50.242Z,1803
2022-12-28T06:01:08.861Z,1796
2022-12-28T06:06:27.481Z,1803
2022-12-28T06:11:45.980Z,1821
2022-12-28T06:17:04.237Z,1841
2022-12-28T06:22:22.734Z,1849
2022-12-28T06:27:41.212Z,1865
2022-12-28T06:32:59.999Z,1873
2022-12-28T06:38:18.265Z,1867
2022-12-28T06:43:36.204Z,1869
2022-12-28T06:48:54.700Z,1876
2022-12-28T06:54:12.654Z,1888
2022-12-28T06:59:31.151Z,1912
2022-12-28T07:04:49.682Z,1913
2022-12-28T07:09:51.991Z,1900
2022-12-28T07:15:10.479Z,1906
2022-12-28T07:20:28.708Z,1923
2022-12-28T07:25:47.196Z,1929
2022-12-28T07:31:05.738Z,1925
2022-12-28T07:36:24.321Z,1939
2022-12-28T07:41:42.870Z,1945
2022-12-28T07:47:01.354Z,1954
2022-12-28T07:52:19.855Z,1975
2022-12-28T07:57:37.773Z,1972
2022-12-28T08:02:56.014Z,1982
2022-12-28T08:08:14.526Z,1994
2022-12-28T08:13:32.994Z,1978
2022-12-28T08:18:50.978Z,1982
2022-12-28T08:24:09.772Z,1805
2022-12-28T08:29:27.955Z,1746
2022-12-28T08:34:46.133Z,1713
2022-12-28T08:40:04.361Z,1358
2022-12-28T08:45:22.822Z,1142
2022-12-28T08:50:41.375Z,1186
2022-12-28T08:56:06.155Z,1268
2022-12-28T09:01:25.253Z,1348
2022-12-28T09:06:44.319Z,1415
2022-12-28T09:12:02.273Z,1478
2022-12-28T09:17:20.448Z,1521
2022-12-28T09:22:38.922Z,1536
2022-12-28T09:27:59.415Z,1545
2022-12-28T09:33:18.109Z,1570
2022-12-28T09:38:36.616Z,1568
2022-12-28T09:43:55.189Z,1567
2022-12-28T09:49:13.678Z,1565
2022-12-28T09:54:31.897Z,1587
2022-12-28T09:59:52.031Z,1629
2022-12-28T10:05:10.503Z,1667
2022-12-28T10:10:29.264Z,1712
2022-12-28T10:15:47.822Z,1727
2022-12-28T10:21:06.159Z,1715
2022-12-28T10:26:24.622Z,1702
2022-12-28T10:31:43.200Z,1692
2022-12-28T10:37:02.077Z,1684
2022-12-28T10:42:20.561Z,1677
2022-12-28T10:47:39.061Z,1670
2022-12-28T10:52:56.982Z,1677
2022-12-28T10:58:33.178Z,1670
2022-12-28T11:03:52.696Z,1660
2022-12-28T11:09:11.104Z,1647
2022-12-28T11:14:29.028Z,1632
2022-12-28T11:19:47.581Z,1616
2022-12-28T11:25:05.764Z,1603
2022-12-28T11:30:23.964Z,1582
2022-12-28T11:35:42.484Z,1566
2022-12-28T11:41:00.960Z,1552
2022-12-28T11:46:19.438Z,1536
2022-12-28T11:51:37.961Z,1521
2022-12-28T11:56:55.909Z,1512
2022-12-28T12:02:14.127Z,1507
2022-12-28T12:07:32.709Z,1494
2022-12-28T12:12:51.465Z,1474
2022-12-28T12:18:09.951Z,1467
2022-12-28T12:23:28.194Z,1457
2022-12-28T12:28:46.709Z,1447
2022-12-28T12:34:05.172Z,1435
2022-12-28T12:39:23.691Z,1424
2022-12-28T12:44:42.164Z,1412
2022-12-28T12:50:00.678Z,1402
2022-12-28T12:55:18.898Z,1390
2022-12-28T13:00:37.071Z,1379
2022-12-28T13:05:55.851Z,1369
2022-12-28T13:11:13.820Z,1362
2022-12-28T13:16:32.315Z,1350
2022-12-28T13:21:50.809Z,1333
2022-12-28T13:27:12.517Z,1318
2022-12-28T13:32:36.146Z,1308
2022-12-28T13:37:56.819Z,1295
2022-12-28T13:43:15.058Z,1296
2022-12-28T13:48:33.240Z,1289
2022-12-28T13:53:51.736Z,1281
2022-12-28T13:59:09.960Z,1270
2022-12-28T14:04:54.678Z,1260
2022-12-28T14:10:13.191Z,1249
2022-12-28T14:15:37.330Z,1244
2022-12-28T14:20:59.735Z,1240
2022-12-28T14:26:17.670Z,1243
2022-12-28T14:31:35.949Z,1235
2022-12-28T14:36:55.121Z,1229
2022-12-28T14:42:13.840Z,1220
2022-12-28T14:47:32.346Z,1221
2022-12-28T14:52:51.631Z,1216
2022-12-28T14:58:10.109Z,1212
2022-12-28T15:03:28.391Z,1209
2022-12-28T15:08:46.560Z,1207
2022-12-28T15:14:04.507Z,1201
2022-12-28T15:19:23.308Z,1202
2022-12-28T15:24:41.891Z,1203
2022-12-28T15:30:09.101Z,1202
2022-12-28T15:35:40.637Z,1200
2022-12-28T15:40:59.399Z,1202
2022-12-28T15:46:17.988Z,1195
2022-12-28T15:51:36.216Z,1193
2022-12-28T15:56:54.709Z,1189
2022-12-28T16:02:13.721Z,1189
2022-12-28T16:07:32.729Z,1188
2022-12-28T16:12:51.219Z,1185
2022-12-28T16:18:09.976Z,1186
2022-12-28T16:23:27.921Z,1188
2022-12-28T16:28:46.121Z,1186
2022-12-28T16:34:04.036Z,1177
2022-12-28T16:39:22.841Z,1170
2022-12-28T16:44:41.330Z,1162
2022-12-28T16:49:59.547Z,1153
2022-12-28T16:55:17.524Z,1153
2022-12-28T17:00:36.028Z,1148
2022-12-28T17:05:54.773Z,1145
2022-12-28T17:11:13.022Z,1139
2022-12-28T17:16:31.315Z,1134
2022-12-28T17:21:49.931Z,1129
2022-12-28T17:27:11.863Z,1127
2022-12-28T17:32:37.705Z,1119
2022-12-28T17:37:56.446Z,1111
2022-12-28T17:43:14.986Z,1109
2022-12-28T17:48:32.903Z,1109
2022-12-28T17:53:51.411Z,1105
2022-12-28T17:59:09.626Z,1099
2022-12-28T18:04:28.106Z,1093
2022-12-28T18:09:46.871Z,1089
2022-12-28T18:15:05.126Z,1086
2022-12-28T18:20:23.335Z,1085
2022-12-28T18:25:41.562Z,1078
2022-12-28T18:31:02.204Z,1074
2022-12-28T18:36:21.540Z,1065
2022-12-28T18:41:40.031Z,1064
2022-12-28T18:46:58.821Z,1061
2022-12-28T18:52:16.762Z,1056
2022-12-28T18:57:35.254Z,1052
2022-12-28T19:02:53.619Z,1047
2022-12-28T19:08:12.382Z,1041
2022-12-28T19:13:30.595Z,1037
2022-12-28T19:18:49.118Z,1039
2022-12-28T19:24:07.319Z,1033
2022-12-28T19:29:25.540Z,1031
2022-12-28T19:34:44.058Z,1032
2022-12-28T19:40:02.270Z,1029
2022-12-28T19:45:20.465Z,1024
2022-12-28T19:50:39.290Z,1027
2022-12-28T19:55:57.237Z,1025
2022-12-28T20:01:15.259Z,1019
2022-12-28T20:06:33.785Z,1018
2022-12-28T20:11:51.720Z,1018
2022-12-28T20:17:10.225Z,1011
2022-12-28T20:22:28.745Z,1007
2022-12-28T20:27:46.941Z,1007
2022-12-28T20:33:05.733Z,1005
2022-12-28T20:38:25.310Z,1002
2022-12-28T20:43:43.230Z,999
2022-12-28T20:49:01.455Z,1003
2022-12-28T20:54:20.248Z,998
2022-12-28T20:59:38.627Z,995
2022-12-28T21:04:57.416Z,1001
2022-12-28T21:10:15.650Z,996
2022-12-28T21:15:34.198Z,996
2022-12-28T21:20:52.671Z,997
2022-12-28T21:26:11.468Z,999
2022-12-28T21:31:30.037Z,997
2022-12-28T21:36:48.352Z,995
2022-12-28T21:42:06.287Z,1000
2022-12-28T21:47:24.589Z,1002
2022-12-28T21:52:43.358Z,1004
2022-12-28T21:58:02.149Z,1005
2022-12-28T22:03:20.438Z,1005
2022-12-28T22:08:38.996Z,1006
2022-12-28T22:13:57.236Z,1005
2022-12-28T22:19:15.463Z,1008
2022-12-28T22:24:34.251Z,1012
2022-12-28T22:29:53.053Z,1011
2022-12-28T22:35:13.552Z,1011
2022-12-28T22:40:32.039Z,1014
2022-12-28T22:45:50.300Z,1014
2022-12-28T22:51:09.085Z,1012
2022-12-28T22:56:27.570Z,1015
2022-12-28T23:01:46.494Z,1015
2022-12-28T23:07:04.849Z,1015
2022-12-28T23:12:23.316Z,1008
2022-12-28T23:17:42.120Z,1007
2022-12-28T23:23:00.759Z,1012
2022-12-28T23:28:18.993Z,1010
2022-12-28T23:33:37.502Z,1008
2022-12-28T23:38:55.733Z,1006
2022-12-28T23:44:14.503Z,1006
2022-12-28T23:49:33.055Z,1006
2022-12-28T23:54:51.822Z,1008
2022-12-28T23:59:54.686Z,1007
